Content
SEND FEEDBACK

Daily
Averages
Monthly
Summary
United States of America

CIMARRON NATIONAL GRASSLAND, KANSAS


Home > North America > United States > Kansas
Elevation: 3530 feet     Latitude: 37 14N     Longitude: 101 57W

WEATHER
 
SELECT A DAY
Number of Records: 446,591;   Date Range: 1/1/95 - 12/16/14
 
SHARE

PRINT THIS DATA

[ ← Previous Day ]
WEATHER ALMANAC - JANUARY 31, 2013
[ Next Day → ]
[ °C ]   °F
Weather ElementAverageHighLow
Temperature34.3 °F46 °F (3:48 pm)19 °F (11:28 pm)
Dewpoint17.7 °F25.2 °F (4:08 pm)12 °F (11:28 pm)
Humidity51.7 %75 % (11:08 pm)38 % (10:28 am)
Wind Speed10.4 mph16.1 mph (12:48 pm)
Weather ElementAverage
Wind DirectionSSE (164.4 °)

Weather ElementTotal
Precipitation---
Heating Degree Days32.5 (Base 65)
Averaged from 71 records on January 31, 2013
WEATHER CONDITIONS BREAKOUT
WIND DIRECTION BREAKOUT
WEATHER BY HOUR - JANUARY 31, 2013
[ °C ]   °F
Local TimeTemperatureDewpointHumidityBarometerVisibilityWind DirectionWind SpeedGust SpeedPrecipitationEventsConditions
12:28 AM30.9 °F14.0 °F50 %WSW (240°)10.4 mph
12:48 AM30.0 °F14.0 °F51 %WSW (250°)6.9 mph
1:08 AM30.0 °F14.0 °F51 %WSW (240°)6.9 mph
1:28 AM28.9 °F14.0 °F54 %WSW (240°)9.2 mph
1:48 AM30.0 °F14.0 °F51 %WSW (240°)8.1 mph
2:08 AM30.0 °F14.0 °F51 %WSW (250°)8.1 mph
2:28 AM32.0 °F14.0 °F48 %West (260°)10.4 mph
2:48 AM32.0 °F14.0 °F48 %West (260°)12.7 mph
3:08 AM32.0 °F15.1 °F50 %WSW (240°)10.4 mph
3:28 AM33.1 °F15.1 °F48 %West (260°)10.4 mph
3:48 AM32.0 °F15.1 °F50 %West (260°)11.5 mph
4:08 AM30.0 °F14.0 °F51 %West (260°)10.4 mph
4:28 AM30.9 °F14.0 °F50 %West (260°)10.4 mph
4:48 AM34.0 °F14.0 °F44 %West (260°)13.8 mph
5:08 AM30.0 °F14.0 °F51 %West (260°)12.7 mph
5:28 AM28.9 °F14.0 °F54 %West (270°)10.4 mph
5:48 AM28.9 °F14.0 °F54 %West (260°)13.8 mph
6:08 AM28.9 °F14.0 °F54 %West (260°)10.4 mph
6:28 AM28.9 °F14.0 °F54 %West (270°)11.5 mph
6:48 AM30.0 °F14.0 °F51 %WSW (250°)11.5 mph
7:08 AM30.0 °F14.0 °F51 %West (270°)10.4 mph
7:28 AM30.0 °F14.0 °F51 %West (260°)11.5 mph
7:48 AM30.9 °F14.0 °F50 %West (260°)13.8 mph
8:08 AM30.9 °F14.0 °F50 %West (260°)11.5 mph
8:28 AM30.9 °F15.1 °F52 %West (260°)11.5 mph
8:48 AM32.0 °F16.2 °F52 %West (260°)11.5 mph
9:08 AM35.1 °F17.1 °F48 %West (260°)11.5 mph
9:28 AM37.9 °F18.1 °F45 %West (280°)11.5 mph
9:48 AM41.0 °F19.0 °F41 %NNW (330°)9.2 mph
10:08 AM42.1 °F21.0 °F43 %North (350°)9.2 mph
10:28 AM39.9 °F16.2 °F38 %NNW (340°)15.0 mph
10:48 AM39.9 °F19.0 °F43 %North (350°)10.4 mph
11:08 AM41.0 °F19.0 °F41 %NNE (20°)12.7 mph
11:28 AM41.0 °F20.1 °F43 %NNE (30°)11.5 mph
11:48 AM42.1 °F20.1 °F42 %NNE (30°)12.7 mph
12:08 PM42.1 °F21.0 °F43 %NNE (30°)9.2 mph
12:28 PM43.0 °F20.1 °F40 %North (10°)15.0 mph
12:48 PM43.0 °F21.0 °F42 %NNE (20°)16.1 mph
1:08 PM43.0 °F22.1 °F44 %NNE (20°)12.7 mph
1:28 PM43.0 °F23.0 °F45 %NE (40°)12.7 mph
1:48 PM44.1 °F23.0 °F43 %NNE (30°)8.1 mph
2:08 PM44.1 °F24.1 °F45 %NNE (30°)8.1 mph
2:28 PM45.0 °F23.0 °F42 %NE (50°)11.5 mph
2:48 PM45.0 °F24.1 °F44 %ENE (70°)8.1 mph
3:08 PM45.0 °F23.0 °F42 %ENE (70°)6.9 mph
3:28 PM45.0 °F24.1 °F44 %NE (50°)6.9 mph
3:48 PM46.0 °F24.1 °F42 %East (90°)5.8 mph
4:08 PM46.0 °F25.2 °F44 %East (80°)5.8 mph
4:28 PM46.0 °F24.1 °F42 %ENE (70°)9.2 mph
4:48 PM46.0 °F24.1 °F42 %East (100°)8.1 mph
5:08 PM45.0 °F24.1 °F44 %East (100°)9.2 mph
5:28 PM43.0 °F25.2 °F49 %East (100°)9.2 mph
5:48 PM42.1 °F24.1 °F49 %East (100°)8.1 mph
6:08 PM39.0 °F23.0 °F53 %East (100°)10.4 mph
6:28 PM37.0 °F22.1 °F55 %East (100°)9.2 mph
6:48 PM35.1 °F21.0 °F57 %East (100°)10.4 mph
7:08 PM30.9 °F19.0 °F61 %ESE (120°)9.2 mph
7:28 PM30.0 °F19.0 °F64 %ESE (110°)10.4 mph
7:48 PM28.9 °F19.0 °F67 %SE (130°)8.1 mph
8:08 PM28.0 °F18.1 °F66 %ESE (110°)10.4 mph
8:28 PM28.0 °F17.1 °F63 %ESE (110°)11.5 mph
8:48 PM28.0 °F17.1 °F63 %ESE (110°)11.5 mph
9:08 PM27.0 °F16.2 °F64 %East (100°)11.5 mph
9:28 PM26.1 °F15.1 °F63 %East (100°)12.7 mph
9:48 PM24.1 °F15.1 °F69 %East (100°)12.7 mph
10:08 PM23.0 °F14.0 °F68 %ESE (110°)12.7 mph
10:28 PM21.9 °F14.0 °F72 %ESE (110°)10.4 mph
10:48 PM21.0 °F13.1 °F71 %ESE (110°)10.4 mph
11:08 PM19.9 °F13.1 °F75 %ESE (110°)6.9 mph
11:28 PM19.0 °F12.0 °F74 %ESE (110°)9.2 mph
11:48 PM19.0 °F12.0 °F74 %ESE (120°)8.1 mph
Hourly data recorded from KEHA, located miles away from Cimarron National Grassland, Kansas







STORIES FROM OUR PARTNERS